Time;durP1;ratioP1;P1;durP2;ratioP2;P2;SDS_P1;SDS_P2;PMS_P1;PMS_P2;Temp;Humidity;BMP_temperature;BMP_pressure;BME280_temperature;BME280_humidity;BME280_pressure;Samples;Min_cycle;Max_cycle;Signal;HPM_P1;HPM_P2
2023/01/26 00:00:41;;;;;;;44.33;18.08;;;;;;;1.07;100.00;101047.19;21013642;28;20423;-73
2023/01/26 00:10:49;;;;;;;38.53;17.13;;;;;;;0.84;100.00;101036.09;21012981;28;20048;-73
2023/01/26 00:20:50;;;;;;;41.80;17.17;;;;;;;0.89;100.00;101018.22;21020554;28;20131;-73
2023/01/26 00:30:51;;;;;;;41.35;18.13;;;;;;;0.87;100.00;101012.16;21029159;28;20432;-72
2023/01/26 00:40:53;;;;;;;37.97;17.33;;;;;;;0.85;100.00;101006.03;21023769;28;20048;-73
2023/01/26 00:50:54;;;;;;;40.13;18.52;;;;;;;0.85;100.00;100996.59;21032215;28;20059;-74
2023/01/26 01:00:55;;;;;;;40.60;18.17;;;;;;;0.89;100.00;100980.41;21018808;28;20056;-73
2023/01/26 01:10:57;;;;;;;42.40;19.48;;;;;;;0.95;100.00;100974.56;21028006;28;20049;-75
2023/01/26 01:20:58;;;;;;;42.78;18.33;;;;;;;0.99;100.00;100972.16;21019505;28;20048;-73
2023/01/26 01:30:59;;;;;;;39.30;17.25;;;;;;;1.07;100.00;100964.66;21024258;28;20079;-72
2023/01/26 01:41:00;;;;;;;38.35;16.10;;;;;;;1.04;100.00;100959.41;21021531;28;20074;-73
2023/01/26 01:51:02;;;;;;;44.15;18.80;;;;;;;1.00;100.00;100962.72;21022294;28;20097;-73
2023/01/26 02:01:03;;;;;;;42.75;18.25;;;;;;;0.84;100.00;100960.47;21018406;28;20560;-76
2023/01/26 02:11:04;;;;;;;44.75;19.67;;;;;;;0.87;100.00;100960.59;21018183;28;20049;-77
2023/01/26 02:21:05;;;;;;;43.50;19.10;;;;;;;0.76;100.00;100949.91;21023786;28;20052;-73
2023/01/26 02:31:07;;;;;;;42.97;18.63;;;;;;;0.66;100.00;100958.16;21014609;28;20055;-74
2023/01/26 02:41:08;;;;;;;46.13;19.38;;;;;;;0.64;100.00;100947.81;21023665;28;20054;-72
2023/01/26 02:51:09;;;;;;;53.85;20.55;;;;;;;0.61;100.00;100946.81;21011508;28;20055;-72
2023/01/26 03:01:11;;;;;;;42.80;19.08;;;;;;;0.48;100.00;100941.28;21021904;28;20087;-72
2023/01/26 03:11:12;;;;;;;46.05;18.55;;;;;;;0.46;100.00;100934.31;21010366;28;20051;-74
2023/01/26 03:31:33;;;;;;;48.10;18.42;;;;;;;0.22;100.00;100930.06;21012244;28;20539;-72
2023/01/26 04:12:35;;;;;;;47.47;18.65;;;;;;;0.26;100.00;100905.31;21018838;28;20103;-72
2023/01/26 04:22:42;;;;;;;53.80;20.98;;;;;;;0.33;100.00;100898.66;21007189;28;20052;-74
2023/01/26 04:32:44;;;;;;;54.33;21.02;;;;;;;0.02;100.00;100894.19;21015480;28;20672;-73
2023/01/26 04:42:46;;;;;;;48.67;18.33;;;;;;;-0.14;100.00;100882.47;21012160;28;20656;-73
2023/01/26 04:52:47;;;;;;;61.90;22.35;;;;;;;-0.12;100.00;100881.69;21013563;28;20064;-72
2023/01/26 05:02:48;;;;;;;58.35;20.73;;;;;;;-0.08;100.00;100864.66;21015925;28;20052;-72
2023/01/26 05:12:50;;;;;;;53.30;18.27;;;;;;;-0.16;100.00;100860.94;21025237;28;20048;-75
2023/01/26 05:22:51;;;;;;;45.53;18.45;;;;;;;-0.06;100.00;100868.16;21027784;28;20547;-73
2023/01/26 05:32:52;;;;;;;43.30;18.00;;;;;;;-0.06;100.00;100857.84;21029954;28;20053;-73
2023/01/26 05:42:53;;;;;;;47.65;18.17;;;;;;;-0.02;100.00;100854.56;21033491;28;20417;-70
2023/01/26 05:52:55;;;;;;;74.03;24.88;;;;;;;-0.01;100.00;100866.63;21019251;28;20052;-70
2023/01/26 06:02:57;;;;;;;45.05;18.38;;;;;;;-0.09;100.00;100861.22;21028389;28;20113;-69
2023/01/26 06:12:58;;;;;;;38.78;16.38;;;;;;;-0.06;100.00;100863.00;21015529;28;20056;-69
2023/01/26 06:23:00;;;;;;;38.45;16.13;;;;;;;-0.30;100.00;100861.31;21025881;28;20552;-70
2023/01/26 06:33:01;;;;;;;37.42;13.88;;;;;;;-0.11;100.00;100869.69;21015441;28;20055;-69
2023/01/26 06:43:03;;;;;;;42.58;15.98;;;;;;;-0.22;100.00;100881.31;21023954;28;20118;-69
2023/01/26 06:53:04;;;;;;;37.92;16.27;;;;;;;-0.42;100.00;100889.19;21016739;28;20082;-69
2023/01/26 07:03:05;;;;;;;45.25;17.20;;;;;;;-0.29;100.00;100896.56;21015501;28;20046;-68
2023/01/26 07:13:07;;;;;;;45.08;16.60;;;;;;;-0.21;100.00;100895.94;21018467;28;20105;-69
2023/01/26 07:23:08;;;;;;;42.50;16.02;;;;;;;-0.29;100.00;100898.22;21013817;28;20055;-71
2023/01/26 07:33:09;;;;;;;41.72;16.75;;;;;;;-0.19;100.00;100897.75;21018027;28;20048;-71
2023/01/26 07:43:10;;;;;;;33.47;13.48;;;;;;;-0.14;100.00;100885.06;21011143;28;20121;-72
2023/01/26 07:53:14;;;;;;;42.45;16.60;;;;;;;-0.12;100.00;100898.84;21020031;28;20048;-71
2023/01/26 08:03:15;;;;;;;34.80;14.85;;;;;;;-0.08;100.00;100904.16;21017741;23;20055;-76
2023/01/26 08:13:16;;;;;;;38.05;15.48;;;;;;;-0.10;100.00;100907.47;21054882;28;20056;-76
2023/01/26 08:23:46;;;;;;;31.45;12.98;;;;;;;-0.03;100.00;100917.19;21040976;28;20045;-79
2023/01/26 08:55:17;;;;;;;37.13;14.33;;;;;;;0.06;100.00;100920.09;21035300;28;20485;-79
2023/01/26 09:16:02;;;;;;;31.42;13.32;;;;;;;0.15;100.00;100925.56;21015023;28;20028;-79
2023/01/26 09:26:03;;;;;;;28.27;11.40;;;;;;;0.07;100.00;100926.09;21022224;28;20493;-79
2023/01/26 09:36:04;;;;;;;30.48;13.90;;;;;;;0.11;100.00;100933.13;21090742;28;20059;-79
2023/01/26 09:46:06;;;;;;;28.30;12.45;;;;;;;0.30;100.00;100926.91;21078552;28;20048;-79
2023/01/26 09:56:07;;;;;;;25.33;11.52;;;;;;;0.20;100.00;100936.00;21084896;28;20052;-79
2023/01/26 10:06:08;;;;;;;27.15;11.07;;;;;;;0.10;100.00;100921.94;21089208;28;20141;-79
2023/01/26 10:16:10;;;;;;;21.05;9.15;;;;;;;0.16;100.00;100932.44;21028841;22;20110;-73
2023/01/26 10:36:17;;;;;;;25.13;12.38;;;;;;;-0.32;100.00;100905.84;20812622;28;20413;-70
2023/01/26 10:46:18;;;;;;;17.95;8.15;;;;;;;-0.48;100.00;100908.66;20813133;28;20045;-68
2023/01/26 10:56:20;;;;;;;18.27;8.85;;;;;;;-0.29;100.00;100896.56;20810034;28;20409;-68
2023/01/26 11:06:21;;;;;;;25.88;10.95;;;;;;;-0.16;100.00;100896.97;20809166;28;20045;-68
2023/01/26 11:16:23;;;;;;;22.23;9.70;;;;;;;-0.30;100.00;100889.63;20810325;28;20049;-68
2023/01/26 11:26:25;;;;;;;19.00;8.70;;;;;;;-0.37;100.00;100879.97;20810707;28;20057;-68
2023/01/26 11:36:26;;;;;;;15.15;7.05;;;;;;;-0.35;100.00;100885.16;20809516;28;20075;-69
2023/01/26 11:46:28;;;;;;;16.45;8.65;;;;;;;-0.20;100.00;100870.25;20809366;28;20365;-68
2023/01/26 11:56:30;;;;;;;16.08;7.25;;;;;;;-0.21;100.00;100863.34;20804453;28;20056;-68
2023/01/26 12:06:31;;;;;;;13.60;6.25;;;;;;;-0.11;100.00;100838.81;20807439;28;20111;-68
2023/01/26 12:16:33;;;;;;;12.32;5.72;;;;;;;-0.19;100.00;100840.25;20821812;28;20076;-68
2023/01/26 12:26:34;;;;;;;11.57;5.88;;;;;;;-0.08;100.00;100823.47;20824985;28;20069;-68
2023/01/26 12:36:35;;;;;;;12.70;6.15;;;;;;;-0.03;100.00;100811.66;20823244;28;20053;-68
2023/01/26 12:46:37;;;;;;;13.05;5.93;;;;;;;0.16;100.00;100801.13;20817002;28;20061;-66
2023/01/26 12:56:39;;;;;;;9.88;4.72;;;;;;;0.05;100.00;100802.50;20820167;28;20068;-69
2023/01/26 13:06:40;;;;;;;9.70;4.88;;;;;;;-0.12;100.00;100801.03;20817917;28;20153;-69
2023/01/26 13:16:41;;;;;;;10.38;5.18;;;;;;;0.08;100.00;100793.97;20817667;28;20064;-68
2023/01/26 13:26:43;;;;;;;14.48;7.40;;;;;;;0.03;100.00;100786.09;20816252;28;20108;-68
2023/01/26 13:36:44;;;;;;;17.95;9.27;;;;;;;0.01;100.00;100792.91;20817116;28;20557;-68
2023/01/26 13:46:45;;;;;;;18.55;9.02;;;;;;;-0.12;100.00;100798.47;20816745;28;20053;-69
2023/01/26 13:56:47;;;;;;;25.63;11.48;;;;;;;-0.19;100.00;100799.97;20812566;28;20506;-68
2023/01/26 14:06:48;;;;;;;20.33;9.85;;;;;;;-0.33;100.00;100806.34;20814074;28;20921;-70
2023/01/26 14:16:49;;;;;;;18.63;9.32;;;;;;;-0.23;100.00;100812.69;20812536;28;20405;-72
2023/01/26 14:26:51;;;;;;;20.08;9.60;;;;;;;-0.28;100.00;100825.38;20813024;28;20053;-71
2023/01/26 14:36:52;;;;;;;17.92;9.40;;;;;;;-0.16;100.00;100817.19;20797472;28;20099;-71
2023/01/26 14:46:53;;;;;;;19.35;8.95;;;;;;;-0.21;100.00;100831.59;20810508;28;20103;-69
2023/01/26 14:56:54;;;;;;;23.33;11.68;;;;;;;-0.20;100.00;100834.22;20805068;28;20049;-71
2023/01/26 15:06:56;;;;;;;22.30;10.55;;;;;;;-0.22;100.00;100840.16;20803894;28;20049;-70
2023/01/26 15:16:57;;;;;;;24.45;12.32;;;;;;;-0.40;100.00;100846.38;20803798;28;20052;-71
2023/01/26 15:26:58;;;;;;;20.38;10.90;;;;;;;-0.51;100.00;100850.28;20804649;28;20437;-70
2023/01/26 15:37:00;;;;;;;24.15;11.35;;;;;;;-0.44;100.00;100851.38;20792032;28;20053;-73
2023/01/26 15:47:01;;;;;;;26.33;11.65;;;;;;;-0.43;100.00;100851.44;20789949;28;20049;-72
2023/01/26 15:57:02;;;;;;;20.80;11.05;;;;;;;-0.49;100.00;100851.19;20796997;28;20049;-71
2023/01/26 16:07:03;;;;;;;28.60;11.57;;;;;;;-0.47;100.00;100849.56;20803194;28;20097;-71
2023/01/26 16:17:05;;;;;;;29.50;13.02;;;;;;;-0.45;100.00;100836.75;20801113;28;20045;-69
2023/01/26 16:27:06;;;;;;;25.08;11.25;;;;;;;-0.36;100.00;100837.97;20802180;28;20502;-71
2023/01/26 16:37:07;;;;;;;31.30;12.45;;;;;;;-0.35;100.00;100834.56;20801067;28;20316;-71
2023/01/26 16:47:08;;;;;;;37.10;17.63;;;;;;;-0.22;100.00;100829.84;20800799;28;20049;-70
2023/01/26 16:57:10;;;;;;;29.27;12.77;;;;;;;-0.28;100.00;100825.38;20805385;28;20115;-70
2023/01/26 17:07:11;;;;;;;31.23;14.27;;;;;;;-0.18;100.00;100836.88;20800128;28;20449;-69
2023/01/26 17:17:12;;;;;;;44.45;18.50;;;;;;;-0.23;100.00;100835.84;20812430;28;20053;-70
2023/01/26 17:27:14;;;;;;;30.73;13.70;;;;;;;-0.22;100.00;100845.28;20813380;28;20061;-72
2023/01/26 17:37:15;;;;;;;44.38;19.88;;;;;;;-0.21;100.00;100852.19;20811463;28;20123;-67
2023/01/26 17:47:16;;;;;;;58.35;25.98;;;;;;;-0.22;100.00;100850.44;20804711;28;20175;-69
2023/01/26 17:57:17;;;;;;;30.88;13.75;;;;;;;-0.28;100.00;100854.56;20809099;28;20192;-69
2023/01/26 18:07:19;;;;;;;29.85;13.23;;;;;;;-0.23;100.00;100861.56;20807669;28;20454;-67
2023/01/26 18:17:20;;;;;;;31.35;13.80;;;;;;;-0.24;100.00;100852.06;20808232;28;20050;-71
2023/01/26 18:27:22;;;;;;;31.02;13.57;;;;;;;-0.27;100.00;100858.88;20806934;28;20528;-70
2023/01/26 18:37:23;;;;;;;31.40;13.70;;;;;;;-0.48;100.00;100862.38;20805634;28;20057;-69
2023/01/26 18:47:24;;;;;;;30.80;14.32;;;;;;;-0.75;100.00;100864.81;20801602;28;20100;-68
2023/01/26 18:57:25;;;;;;;32.42;13.68;;;;;;;-0.65;100.00;100862.63;20804502;28;20085;-68
2023/01/26 19:07:27;;;;;;;34.30;16.13;;;;;;;-0.68;100.00;100851.34;20800555;28;20049;-70
2023/01/26 19:17:28;;;;;;;29.63;14.07;;;;;;;-0.81;100.00;100856.06;20800017;28;20268;-69
2023/01/26 19:27:30;;;;;;;27.02;13.43;;;;;;;-0.73;100.00;100860.59;20802321;28;20501;-70
2023/01/26 19:37:31;;;;;;;29.17;13.90;;;;;;;-0.93;100.00;100862.41;20802425;28;20516;-69
2023/01/26 19:47:32;;;;;;;36.40;15.57;;;;;;;-0.71;100.00;100864.13;20801560;28;20057;-70
2023/01/26 19:57:34;;;;;;;26.85;12.82;;;;;;;-0.83;100.00;100860.25;20799154;28;20061;-69
2023/01/26 20:07:36;;;;;;;33.00;13.57;;;;;;;-0.95;100.00;100861.50;20803066;28;20053;-71
2023/01/26 20:17:37;;;;;;;23.27;11.75;;;;;;;-0.94;100.00;100861.56;20799528;28;20116;-71
2023/01/26 20:27:39;;;;;;;37.70;15.85;;;;;;;-0.93;100.00;100858.16;20798587;28;20464;-71
2023/01/26 20:37:40;;;;;;;29.17;14.45;;;;;;;-0.86;100.00;100849.88;20812189;28;20068;-74
2023/01/26 20:47:42;;;;;;;30.00;13.70;;;;;;;-1.01;100.00;100853.53;20814729;28;20053;-70
2023/01/26 20:57:43;;;;;;;37.38;16.50;;;;;;;-1.00;100.00;100840.78;20813045;28;20520;-69
2023/01/26 21:07:44;;;;;;;30.55;12.90;;;;;;;-0.92;100.00;100849.63;20812576;28;20057;-70
2023/01/26 21:17:46;;;;;;;31.15;13.50;;;;;;;-0.93;100.00;100837.59;20811748;28;20063;-70
2023/01/26 21:27:47;;;;;;;25.05;12.02;;;;;;;-0.96;100.00;100836.59;20811146;28;20135;-70
2023/01/26 21:37:48;;;;;;;27.73;12.98;;;;;;;-0.97;100.00;100825.44;20808786;28;20111;-70
2023/01/26 21:48:26;;;;;;;28.25;13.55;;;;;;;-1.01;100.00;100825.28;20810278;28;20513;-72
2023/01/26 22:08:31;;;;;;;40.00;16.75;;;;;;;-0.84;100.00;100795.94;20798678;28;20042;-68
2023/01/26 22:18:33;;;;;;;32.33;15.38;;;;;;;-0.93;100.00;100801.59;20808076;28;20448;-69
2023/01/26 22:28:34;;;;;;;32.45;15.15;;;;;;;-0.87;100.00;100793.25;20829885;23;20056;-73
2023/01/26 22:38:35;;;;;;;34.22;14.48;;;;;;;-0.90;100.00;100790.59;20889234;28;20111;-72
2023/01/26 22:48:37;;;;;;;29.20;13.80;;;;;;;-0.92;100.00;100790.50;20891176;28;20493;-69
2023/01/26 22:58:38;;;;;;;31.70;14.82;;;;;;;-0.86;100.00;100788.19;20891660;28;20060;-71
2023/01/26 23:08:59;;;;;;;33.20;14.77;;;;;;;-0.91;100.00;100779.44;20970081;28;20052;-70
2023/01/26 23:19:01;;;;;;;29.30;14.10;;;;;;;-0.81;100.00;100771.22;20974199;28;20075;-70
2023/01/26 23:29:02;;;;;;;31.17;15.07;;;;;;;-0.72;100.00;100759.50;20973509;28;20416;-72
2023/01/26 23:39:03;;;;;;;33.00;14.43;;;;;;;-0.74;100.00;100761.16;20972913;28;20052;-73
2023/01/26 23:49:05;;;;;;;32.88;14.38;;;;;;;-0.70;100.00;100747.59;20973637;28;20082;-72
2023/01/26 23:59:06;;;;;;;31.40;15.07;;;;;;;-0.64;100.00;100753.81;20973098;28;20049;-72
